Latest Weather Observations for Ngukurr AWS

IDD60801

Issued at 2:05 pm CST Tuesday 2 September 2014 (issued every 30 minutes, with the page automatically refreshed every 10 minutes)

About weather observations | Map of weather stations | Latest weather observations for NT | Other Formats
Station Details ID: 014299 Name: NGUKURR AIRPORT Lat: -14.72 Lon: 134.75 Height: 14.46 m
Data from the previous 72 hours. | See also: Recent months at Ngukurr AWS
Date/Time
CST
Temp
°C
App
Temp
°C
Dew
Point
Rel
Hum
%
Delta-T
°C
Wind Press
QNH
hPa
Press
MSL
hPa
Rain
since 9 am
mm
Dir
 
Spd
km/h
Gust
km/h
Spd
kts
Gust
kts
02/02:00pm 34.6 29.9 1.1 12 16.8 SE 15 20 8 11 1013.4 1013.3 0.0
02/01:30pm 34.5 28.9 1.0 12 16.8 E 20 39 11 21 1013.8 1013.7 0.0
02/01:00pm 34.3 29.2 3.0 14 16.2 E 19 30 10 16 1014.1 1014.0 0.0
02/12:30pm 33.4 28.0 2.3 14 15.8 ESE 20 33 11 18 1014.6 1014.5 0.0
02/12:00pm 33.5 27.7 4.2 16 15.3 E 24 37 13 20 1014.9 1014.8 0.0
02/11:30am 32.2 28.6 8.4 23 13.2 E 17 26 9 14 1015.5 1015.4 0.0
02/11:00am 31.6 29.3 10.3 27 12.2 ESE 13 20 7 11 1016.0 1015.9 0.0
02/10:30am 28.9 27.8 11.9 35 9.9 SE 9 15 5 8 1016.4 1016.3 0.0
02/10:00am 27.4 28.7 15.1 47 7.5 E 2 6 1 3 1016.7 1016.6 0.0
02/09:30am 25.4 26.8 16.3 57 5.6 ENE 4 7 2 4 1016.9 1016.8 0.0
02/09:00am 23.3 25.1 17.5 70 3.6 ENE 4 6 2 3 1016.9 1016.8 0.0
02/08:30am 21.2 23.3 18.0 82 2.0 E 4 7 2 4 1016.9 1016.8 0.0
02/08:00am 18.1 20.7 17.5 96 0.4 CALM 0 0 0 0 1016.8 1016.7 0.0
02/07:30am 16.6 18.7 16.3 98 0.2 CALM 0 4 0 2 1016.7 1016.6 0.0
02/07:00am 15.0 15.8 14.7 98 0.2 S 4 6 2 3 1016.6 1016.5 0.0
02/06:30am 14.1 15.0 13.0 93 0.6 CALM 0 4 0 2 1016.4 1016.3 0.0
02/06:00am 14.9 16.4 14.6 98 0.2 SE 0 0 0 0 1016.1 1016.0 0.0
02/05:30am 14.9 15.9 13.3 90 0.9 CALM 0 0 0 0 1015.8 1015.7 0.0
02/05:00am 15.5 16.7 13.9 90 0.9 CALM 0 0 0 0 1015.5 1015.4 0.0
02/04:30am 16.6 17.5 16.1 97 0.3 S 6 9 3 5 1015.3 1015.2 0.0
02/04:00am 16.5 17.6 15.7 95 0.5 SSE 4 6 2 3 1015.0 1014.9 0.0
02/03:30am 16.0 16.2 14.2 89 1.0 S 6 7 3 4 1014.9 1014.8 0.0
02/03:00am 15.9 16.6 12.3 79 2.0 CALM 0 4 0 2 1014.9 1014.8 0.0
02/02:30am 16.5 17.4 12.8 79 2.1 CALM 0 0 0 0 1014.9 1014.8 0.0
02/02:00am 17.0 17.5 12.7 76 2.4 S 2 4 1 2 1015.3 1015.2 0.0
02/01:30am 17.7 18.1 13.8 78 2.2 S 4 4 2 2 1015.4 1015.3 0.0
02/01:00am 18.8 20.2 15.3 80 2.1 ESE 2 4 1 2 1015.6 1015.5 0.0
02/12:30am 19.1 19.9 14.8 76 2.5 E 4 4 2 2 1015.8 1015.7 0.0
02/12:00am 18.8 18.4 12.5 67 3.5 ESE 6 7 3 4 1015.8 1015.7 0.0
 
Date/Time
CST
Temp
°C
App
Temp
°C
Dew
Point
Rel
Hum
%
Delta-T
°C
Wind Press
QNH
hPa
Press
MSL
hPa
Rain
since 9 am
mm
Dir
 
Spd
km/h
Gust
km/h
Spd
kts
Gust
kts
01/11:30pm 18.9 18.5 11.0 60 4.3 E 4 6 2 3 1015.7 1015.6 0.0
01/11:00pm 19.4 18.9 10.9 58 4.6 E 4 4 2 2 1015.3 1015.2 0.0
01/10:30pm 20.3 20.6 11.0 55 5.1 CALM 0 0 0 0 1015.2 1015.1 0.0
01/10:00pm 20.9 21.0 10.1 50 5.8 CALM 0 0 0 0 1015.0 1014.9 0.0
01/09:30pm 21.6 21.4 9.2 45 6.6 CALM 0 0 0 0 1014.6 1014.5 0.0
01/09:00pm 23.1 21.7 8.8 40 7.6 E 6 9 3 5 1014.4 1014.3 0.0
01/08:30pm 23.0 21.7 7.5 37 8.1 E 4 6 2 3 1014.1 1014.0 0.0
01/08:00pm 24.3 22.8 7.0 33 9.0 E 4 4 2 2 1013.8 1013.7 0.0
01/07:30pm 25.9 24.2 7.5 31 9.8 ENE 6 9 3 5 1013.4 1013.3 0.0
01/07:00pm 27.0 24.5 6.4 27 10.8 ENE 9 15 5 8 1013.1 1013.0 0.0
01/06:30pm 28.0 25.0 6.2 25 11.4 ENE 11 19 6 10 1012.8 1012.7 0.0
01/06:00pm 29.5 25.3 5.6 22 12.5 E 17 28 9 15 1012.5 1012.4 0.0
01/05:30pm 31.0 26.4 3.9 18 13.9 ENE 17 24 9 13 1012.3 1012.2 0.0
01/05:00pm 32.1 28.1 3.1 16 14.8 E 13 22 7 12 1012.2 1012.1 0.0
01/04:30pm 32.0 27.0 1.2 14 15.2 E 17 28 9 15 1011.9 1011.8 0.0
01/04:00pm 32.7 28.1 1.7 14 15.5 ESE 15 24 8 13 1011.9 1011.8 0.0
01/03:30pm 33.1 27.5 1.0 13 15.9 E 20 37 11 20 1012.1 1012.0 0.0
01/03:00pm 32.6 28.0 1.7 14 15.5 E 15 30 8 16 1012.4 1012.3 0.0
01/02:30pm 33.1 28.4 3.0 15 15.4 ESE 17 30 9 16 1012.5 1012.4 0.0
01/02:00pm 33.3 28.2 3.2 15 15.5 SE 19 37 10 20 1013.0 1012.9 0.0
01/01:30pm 32.8 28.2 3.7 16 15.1 ESE 17 32 9 17 1013.5 1013.4 0.0
01/01:00pm 32.2 27.1 3.2 16 14.8 ESE 19 28 10 15 1014.1 1014.0 0.0
01/12:30pm 31.9 26.9 4.6 18 14.3 ENE 20 28 11 15 1014.6 1014.5 0.0
01/12:00pm 31.2 26.1 4.1 18 14.0 E 20 33 11 18 1015.2 1015.1 0.0
01/11:30am 30.7 28.1 7.8 24 12.5 ESE 11 19 6 10 1015.6 1015.5 0.0
01/11:00am 29.4 27.7 8.5 27 11.5 SSE 7 17 4 9 1016.3 1016.2 0.0
01/10:30am 27.6 27.0 10.3 34 9.7 SSW 4 9 2 5 1016.6 1016.5 0.0
01/10:00am 26.0 26.1 12.8 44 7.7 SW 4 7 2 4 1016.9 1016.8 0.0
01/09:30am 24.3 24.9 15.2 57 5.5 WSW 6 9 3 5 1017.0 1016.9 0.0
01/09:00am 22.1 22.8 15.7 67 3.8 WSW 6 9 3 5 1016.9 1016.9 0.0
01/08:30am 20.5 22.2 15.3 72 3.1 CALM 0 2 0 1 1016.8 1016.8 0.0
01/08:00am 18.3 19.4 14.6 79 2.1 N 2 4 1 2 1016.6 1016.6 0.0
01/07:30am 15.9 17.4 14.6 92 0.7 CALM 0 0 0 0 1016.5 1016.5 0.0
01/07:00am 13.9 14.2 10.9 82 1.6 CALM 0 0 0 0 1016.0 1016.0 0.0
01/06:30am 13.8 14.0 10.6 81 1.7 CALM 0 0 0 0 1015.5 1015.5 0.0
01/06:00am 14.4 14.8 11.2 81 1.7 CALM 0 2 0 1 1015.2 1015.2 0.0
01/05:30am 14.7 15.3 12.0 84 1.5 CALM 0 0 0 0 1015.0 1015.0 0.0
01/05:00am 15.3 15.5 11.7 79 1.9 SSE 2 2 1 1 1014.6 1014.6 0.0
01/04:30am 15.9 15.5 12.5 80 1.9 SSE 6 7 3 4 1014.5 1014.5 0.0
01/04:00am 15.5 14.7 11.7 78 2.1 SSE 7 9 4 5 1014.4 1014.4 0.0
01/03:30am 14.0 13.0 9.0 72 2.5 S 4 7 2 4 1014.0 1014.0 0.0
01/03:00am 14.5 14.2 8.5 67 3.0 CALM 0 0 0 0 1013.5 1013.5 0.0
01/02:30am 15.1 14.5 7.6 61 3.7 CALM 0 0 0 0 1013.5 1013.5 0.0
01/02:00am 15.6 14.6 8.8 64 3.5 S 4 6 2 3 1013.5 1013.5 0.0
01/01:30am 16.8 16.6 9.0 60 4.0 CALM 0 0 0 0 1013.6 1013.6 0.0
01/01:00am 17.2 17.2 9.9 62 3.8 CALM 0 2 0 1 1013.5 1013.5 0.0
01/12:30am 17.7 16.6 8.6 55 4.7 SE 4 6 2 3 1013.6 1013.6 0.0
01/12:00am 17.8 16.3 8.4 54 4.8 ESE 6 7 3 4 1013.7 1013.7 0.0
 
Date/Time
CST
Temp
°C
App
Temp
°C
Dew
Point
Rel
Hum
%
Delta-T
°C
Wind Press
QNH
hPa
Press
MSL
hPa
Rain
since 9 am
mm
Dir
 
Spd
km/h
Gust
km/h
Spd
kts
Gust
kts
31/11:30pm 18.2 16.7 7.0 48 5.6 E 4 6 2 3 1013.8 1013.8 0.0
31/11:00pm 19.0 17.6 7.1 46 6.0 E 4 6 2 3 1013.9 1013.9 0.0
31/10:30pm 18.7 16.9 5.5 42 6.4 E 4 4 2 2 1013.8 1013.8 0.0
31/10:00pm 19.3 18.1 4.6 38 7.1 CALM 0 0 0 0 1013.8 1013.8 0.0
31/09:30pm 20.7 18.8 5.1 36 7.7 E 4 6 2 3 1013.9 1013.9 0.0
31/09:00pm 21.7 19.8 4.7 33 8.3 ENE 4 7 2 4 1013.6 1013.6 0.0
31/08:30pm 21.9 20.7 4.5 32 8.5 CALM 0 0 0 0 1013.4 1013.4 0.0
31/08:00pm 23.4 21.7 3.9 28 9.5 E 2 4 1 2 1013.0 1013.0 0.0
31/07:30pm 24.5 21.8 3.8 26 10.2 E 7 9 4 5 1012.8 1012.8 0.0
31/07:00pm 26.0 23.0 3.9 24 11.0 ENE 9 15 5 8 1012.5 1012.5 0.0
31/06:30pm 27.5 23.4 4.5 23 11.7 ENE 15 28 8 15 1012.1 1012.1 0.0
31/06:00pm 28.9 24.8 4.4 21 12.5 ENE 15 19 8 10 1012.0 1012.0 0.0
31/05:30pm 30.0 24.9 3.1 18 13.6 E 19 28 10 15 1011.8 1011.8 0.0
31/05:00pm 30.7 25.1 1.1 15 14.5 E 20 30 11 16 1011.6 1011.6 0.0
31/04:30pm 31.6 26.4 -0.1 13 15.3 ESE 17 28 9 15 1011.4 1011.4 0.0
31/04:00pm 31.5 25.4 -2.5 11 15.7 ESE 20 32 11 17 1011.3 1011.3 0.0
31/03:30pm 32.4 26.6 -4.5 9 16.6 ESE 17 30 9 16 1011.2 1011.2 0.0
31/03:00pm 32.7 26.9 -1.6 11 16.3 ESE 19 33 10 18 1011.0 1011.0 0.0
31/02:30pm 32.7 27.8 5.3 18 14.6 SE 20 30 11 16 1011.5 1011.5 0.0
31/02:00pm 32.5 27.1 4.3 17 14.7 E 22 28 12 15 1011.9 1011.9 0.0
31/01:30pm 31.5 27.4 4.3 18 14.1 S 15 28 8 15 1012.5 1012.5 0.0
31/01:00pm 31.7 26.4 2.8 16 14.6 SE 20 30 11 16 1013.2 1013.2 0.0
31/12:30pm 30.9 27.4 5.3 20 13.5 E 13 22 7 12 1013.7 1013.7 0.0
31/12:00pm 30.9 26.0 5.3 20 13.5 E 20 32 11 17 1014.4 1014.4 0.0
31/11:30am 30.0 27.2 8.4 26 11.9 E 13 32 7 17 1015.2 1015.2 0.0
31/11:00am 28.8 27.4 10.9 33 10.2 E 9 22 5 12 1015.9 1015.9 0.0
31/10:30am 26.6 26.7 12.6 42 8.1 ENE 4 9 2 5 1016.1 1016.1 0.0
31/10:00am 25.2 25.8 14.3 50 6.5 ESE 4 11 2 6 1016.4 1016.4 0.0
31/09:30am 23.8 25.0 15.8 61 4.8 SSE 4 7 2 4 1016.5 1016.5 0.0
31/09:00am 22.7 23.7 16.3 67 3.9 E 6 9 3 5 1016.5 1016.5 0.0
31/08:30am 21.3 22.8 15.6 70 3.4 E 2 7 1 4 1016.5 1016.5 0.0
31/08:00am 19.6 20.8 13.8 69 3.3 CALM 0 0 0 0 1016.2 1016.2 0.0
31/07:30am 16.9 17.7 12.4 75 2.5 CALM 0 0 0 0 1015.8 1015.8 0.0
31/07:00am 14.5 14.6 10.3 76 2.2 CALM 0 0 0 0 1015.6 1015.6 0.0
31/06:30am 14.9 15.0 10.1 73 2.5 CALM 0 0 0 0 1015.3 1015.3 0.0
31/06:00am 16.2 16.6 11.2 72 2.7 CALM 0 0 0 0 1015.2 1015.2 0.0
31/05:30am 16.0 16.2 10.7 71 2.8 CALM 0 0 0 0 1015.1 1015.1 0.0
31/05:00am 15.0 14.6 9.8 71 2.7 NNE 2 4 1 2 1015.0 1015.0 0.0
31/04:30am 13.9 13.1 9.5 75 2.3 SE 4 6 2 3 1014.7 1014.7 0.0
31/04:00am 13.4 12.4 8.7 73 2.4 SSE 4 6 2 3 1014.5 1014.5 0.0
31/03:30am 13.3 11.8 6.9 65 3.1 S 4 6 2 3 1014.1 1014.1 0.0
31/03:00am 14.3 12.6 7.4 63 3.4 S 6 13 3 7 1014.0 1014.0 0.0
31/02:30am 13.4 12.0 5.6 59 3.7 SE 2 4 1 2 1014.0 1014.0 0.0
31/02:00am 13.7 12.5 4.8 55 4.1 CALM 0 0 0 0 1014.1 1014.1 0.0
31/01:30am 15.0 13.5 5.0 51 4.7 SSE 2 4 1 2 1014.3 1014.3 0.0
31/01:00am 15.2 13.3 5.1 51 4.8 SSE 4 6 2 3 1014.3 1014.3 0.0
31/12:30am 15.8 14.1 5.7 51 4.8 SSE 4 6 2 3 1014.4 1014.4 0.0
31/12:00am 15.6 14.3 4.3 47 5.3 CALM 0 4 0 2 1014.6 1014.6 0.0
 
Date/Time
CST
Temp
°C
App
Temp
°C
Dew
Point
Rel
Hum
%
Delta-T
°C
Wind Press
QNH
hPa
Press
MSL
hPa
Rain
since 9 am
mm
Dir
 
Spd
km/h
Gust
km/h
Spd
kts
Gust
kts
30/11:30pm 15.8 14.0 3.6 44 5.6 S 2 6 1 3 1014.6 1014.6 0.0
30/11:00pm 16.3 14.9 3.4 42 5.9 CALM 0 0 0 0 1014.4 1014.4 0.0
30/10:30pm 17.1 15.6 3.1 39 6.4 CALM 0 0 0 0 1014.5 1014.5 0.0
30/10:00pm 18.1 16.6 3.2 37 6.9 CALM 0 0 0 0 1014.4 1014.4 0.0
30/09:30pm 19.1 17.2 2.9 34 7.5 E 2 4 1 2 1014.5 1014.5 0.0
30/09:00pm 20.1 18.1 2.5 31 8.2 NE 2 4 1 2 1014.4 1014.4 0.0
30/08:30pm 21.3 19.4 2.6 29 8.8 ENE 2 4 1 2 1014.4 1014.4 0.0
30/08:00pm 22.6 21.0 2.7 27 9.5 CALM 0 2 0 1 1014.0 1014.0 0.0
30/07:30pm 24.6 21.7 2.7 24 10.6 E 7 9 4 5 1013.6 1013.6 0.0
30/07:00pm 26.0 22.6 2.0 21 11.5 ENE 9 15 5 8 1013.3 1013.3 0.0
30/06:30pm 27.2 23.4 1.6 19 12.3 ENE 11 17 6 9 1012.8 1012.8 0.0
30/06:00pm 28.5 23.7 0.3 16 13.4 ENE 15 22 8 12 1012.6 1012.6 0.0
30/05:30pm 29.6 24.4 0.2 15 14.1 ENE 17 26 9 14 1012.4 1012.4 0.0
30/05:00pm 30.5 25.3 0.0 14 14.6 ENE 17 28 9 15 1012.3 1012.3 0.0
30/04:30pm 31.1 25.4 -0.5 13 15.1 ENE 19 26 10 14 1012.3 1012.3 0.0
30/04:00pm 31.8 26.4 -1.1 12 15.6 NE 17 26 9 14 1012.1 1012.1 0.0
30/03:30pm 32.2 27.1 -2.0 11 16.0 ENE 15 24 8 13 1012.1 1012.1 0.0
30/03:00pm 32.5 27.4 0.6 13 15.7 NE 17 26 9 14 1012.3 1012.3 0.0
30/02:30pm 32.2 27.6 1.3 14 15.3 ENE 15 28 8 15 1012.7 1012.7 0.0

Other Formats:

Comma delimited format used in spreadsheet applications
http://www.bom.gov.au/fwo/IDD60801/IDD60801.94106.axf

JavaScript Object Notation format (JSON) in row-major order
http://www.bom.gov.au/fwo/IDD60801/IDD60801.94106.json